createdAt,value
2018-07-06T08:35:57.899Z,22.60
2018-07-06T08:37:01.619Z,27.30
2018-07-06T08:39:53.248Z,25.70
2018-07-06T08:41:00.662Z,24.20
2018-07-06T08:42:01.521Z,24.70
2018-07-06T08:43:06.323Z,22.60
2018-07-06T08:44:06.971Z,23.90
2018-07-06T08:45:07.615Z,24.00
2018-07-06T08:46:08.197Z,24.20
2018-07-06T08:47:08.875Z,23.00
2018-07-06T08:48:09.530Z,22.80
2018-07-06T08:49:10.180Z,23.70
2018-07-06T08:50:12.172Z,22.20
2018-07-06T08:51:12.989Z,23.40
2018-07-06T08:52:13.637Z,23.00
2018-07-06T08:55:46.462Z,24.20
2018-07-06T08:56:47.080Z,22.60
2018-07-06T08:57:47.742Z,22.80
2018-07-06T08:58:48.413Z,21.60
2018-07-06T08:59:49.026Z,21.60
2018-07-06T09:00:49.692Z,23.40
2018-07-06T09:01:50.296Z,22.70
2018-07-06T09:02:50.985Z,25.40
2018-07-06T09:03:51.631Z,24.00
2018-07-06T09:04:52.262Z,23.60
2018-07-06T09:05:53.065Z,22.40
2018-07-06T09:06:53.702Z,23.70
2018-07-06T09:07:54.390Z,22.10
2018-07-06T09:08:55.046Z,22.70
2018-07-06T09:09:56.042Z,23.70
2018-07-06T09:10:56.751Z,23.00
2018-07-06T09:11:57.347Z,22.50
2018-07-06T09:13:03.120Z,22.30
2018-07-06T09:16:00.485Z,23.00
2018-07-06T09:17:01.166Z,23.00
2018-07-06T09:18:06.688Z,22.20
2018-07-06T09:19:14.152Z,21.70
2018-07-06T09:20:34.940Z,22.70
2018-07-06T09:21:35.765Z,22.80
2018-07-06T09:22:36.386Z,21.60
2018-07-06T09:23:37.555Z,22.60
2018-07-06T09:24:50.310Z,21.60
2018-07-06T09:25:58.677Z,21.40
2018-07-06T09:26:58.967Z,23.00
2018-07-06T09:27:59.608Z,23.00
2018-07-06T09:29:00.197Z,23.20
2018-07-06T09:30:00.839Z,23.80
2018-07-06T09:31:01.779Z,25.40
2018-07-06T09:32:02.381Z,24.90
2018-07-06T09:33:04.689Z,26.40
2018-07-06T09:34:07.600Z,26.60
2018-07-06T09:35:08.344Z,26.80
2018-07-06T09:38:02.839Z,26.40
2018-07-06T09:39:05.049Z,26.30
2018-07-06T09:40:22.211Z,24.90
2018-07-06T09:43:43.919Z,25.00
2018-07-06T09:44:45.714Z,25.00
2018-07-06T09:45:46.488Z,25.00
2018-07-06T09:46:48.816Z,25.10
2018-07-06T09:47:49.636Z,25.60
2018-07-06T09:48:50.499Z,25.20
2018-07-06T09:51:50.207Z,26.10
2018-07-06T09:52:50.847Z,26.10
2018-07-06T09:53:54.824Z,22.80
2018-07-06T09:54:59.120Z,22.80
2018-07-06T09:55:59.769Z,22.80
2018-07-06T09:57:00.391Z,20.90
2018-07-06T09:58:01.010Z,22.80
2018-07-06T09:59:08.031Z,22.80
2018-07-06T10:02:22.678Z,20.10
2018-07-06T10:03:23.685Z,20.70
2018-07-06T10:04:24.485Z,21.70
2018-07-06T10:05:25.699Z,20.40
2018-07-06T10:06:26.336Z,21.40
2018-07-06T10:07:33.697Z,21.90
2018-07-06T10:08:35.692Z,22.40
2018-07-06T10:09:36.336Z,22.20
2018-07-06T10:10:38.339Z,20.80
2018-07-06T10:12:36.913Z,20.30
2018-07-06T10:13:53.615Z,20.90
2018-07-06T10:14:54.226Z,19.40
2018-07-06T10:15:54.872Z,18.90
2018-07-06T10:16:58.926Z,18.20
2018-07-06T10:17:59.552Z,18.20
2018-07-06T10:19:01.536Z,19.50
2018-07-06T10:21:49.071Z,18.70
2018-07-06T10:22:51.137Z,19.10
2018-07-06T10:23:51.910Z,18.60
2018-07-06T10:24:52.529Z,19.20
2018-07-06T10:25:53.237Z,18.60
2018-07-06T10:26:54.437Z,17.10
2018-07-06T10:28:18.344Z,17.00
2018-07-06T10:29:21.086Z,17.90
2018-07-06T10:30:21.818Z,18.20
2018-07-06T10:31:38.722Z,17.30
2018-07-06T10:32:41.947Z,18.50
2018-07-06T10:33:42.702Z,19.10
2018-07-06T10:34:43.303Z,17.50
2018-07-06T10:35:44.016Z,17.80
2018-07-06T10:36:44.644Z,17.90
2018-07-06T10:37:45.322Z,16.40
2018-07-06T10:38:53.833Z,15.50
2018-07-06T10:39:54.560Z,15.70
2018-07-06T10:40:57.182Z,15.00
2018-07-06T10:41:57.979Z,14.30
2018-07-06T10:42:58.585Z,14.60
2018-07-06T10:43:59.257Z,14.20
2018-07-06T10:45:01.747Z,13.60
2018-07-06T11:02:01.078Z,17.10
2018-07-06T11:04:44.340Z,16.60
2018-07-06T11:05:44.936Z,16.50
2018-07-06T11:19:52.074Z,14.30
2018-07-06T11:20:52.715Z,14.30
2018-07-06T11:21:56.800Z,13.00
2018-07-06T11:22:57.523Z,13.00
2018-07-06T11:23:59.319Z,10.10
2018-07-06T11:25:09.615Z,8.90
2018-07-06T11:26:10.240Z,8.40
2018-07-06T11:29:19.333Z,7.10
2018-07-06T11:30:20.192Z,6.60
2018-07-06T11:31:22.153Z,6.20
2018-07-06T11:32:24.279Z,5.80
2018-07-06T11:33:38.488Z,6.10
2018-07-06T11:34:39.748Z,5.90
2018-07-06T11:35:58.544Z,5.70
2018-07-06T11:37:16.260Z,5.80
2018-07-06T11:38:17.031Z,5.50
2018-07-06T11:39:18.399Z,6.30
2018-07-06T11:40:18.996Z,5.80
2018-07-06T11:41:19.693Z,6.40
2018-07-06T11:42:20.319Z,6.00
2018-07-06T11:43:20.958Z,7.00
2018-07-06T11:45:11.887Z,7.00
2018-07-06T11:46:12.552Z,7.40
2018-07-06T11:47:14.197Z,7.20
2018-07-06T11:48:16.229Z,7.90
2018-07-06T11:49:17.282Z,7.40
2018-07-06T12:02:02.892Z,0.00
2018-07-06T12:03:03.850Z,10.70
2018-07-06T12:04:09.936Z,10.30
2018-07-06T12:05:10.560Z,10.00
2018-07-06T12:06:11.175Z,9.90
2018-07-06T12:07:12.257Z,10.00
2018-07-06T12:08:15.535Z,10.30
2018-07-06T12:30:44.016Z,11.30
2018-07-06T12:31:44.703Z,14.20
2018-07-06T12:32:45.329Z,13.90
2018-07-06T12:33:45.990Z,19.90
2018-07-06T12:34:46.719Z,15.20
2018-07-06T12:35:47.443Z,13.30
2018-07-06T12:36:49.037Z,13.50
2018-07-06T12:37:49.653Z,13.40
2018-07-06T12:38:50.337Z,12.30
2018-07-06T12:39:51.029Z,13.20
2018-07-06T12:40:51.680Z,12.30
2018-07-06T12:41:52.303Z,11.90
2018-07-06T12:43:06.795Z,11.80
2018-07-06T12:44:10.503Z,12.50
2018-07-06T12:45:11.105Z,12.70
2018-07-06T12:46:23.249Z,10.60
2018-07-06T12:47:23.830Z,9.50
2018-07-06T12:48:24.485Z,10.30
2018-07-06T12:49:25.168Z,10.10
2018-07-06T12:50:25.827Z,9.90
2018-07-06T12:51:26.504Z,10.00
2018-07-06T12:52:27.175Z,9.50
2018-07-06T12:53:35.441Z,10.00
2018-07-06T12:55:10.007Z,9.00
2018-07-06T12:56:13.344Z,9.00
2018-07-06T12:57:14.036Z,9.40
2018-07-06T12:58:14.752Z,9.60
2018-07-06T12:59:15.408Z,9.80
2018-07-06T13:00:17.601Z,9.00
2018-07-06T13:01:18.276Z,10.20
2018-07-06T13:02:18.997Z,9.60
2018-07-06T13:03:19.711Z,9.40
2018-07-06T13:04:20.351Z,9.10
2018-07-06T13:05:21.424Z,9.60
2018-07-06T13:06:22.184Z,9.20
2018-07-06T13:07:26.162Z,9.40
2018-07-06T13:08:27.139Z,9.40
2018-07-06T13:09:33.561Z,9.80
2018-07-06T13:10:38.237Z,9.10
2018-07-06T13:11:42.359Z,8.40
2018-07-06T13:12:43.785Z,8.40
2018-07-06T13:14:07.285Z,8.30
2018-07-06T13:15:07.922Z,8.20
2018-07-06T13:16:08.567Z,7.10
2018-07-06T13:17:09.166Z,7.20
2018-07-06T13:18:09.799Z,6.80
2018-07-06T13:19:10.909Z,6.10
2018-07-06T13:20:11.739Z,6.40
2018-07-06T13:21:23.903Z,6.10
2018-07-06T13:22:24.627Z,6.10
2018-07-06T13:23:29.734Z,5.70
2018-07-06T13:24:59.378Z,5.60
2018-07-06T13:28:13.462Z,7.60
2018-07-06T13:29:14.090Z,6.20
2018-07-06T13:30:14.709Z,5.60
2018-07-06T13:31:15.347Z,5.10
2018-07-06T13:32:17.099Z,4.70
2018-07-06T13:33:17.808Z,4.80
2018-07-06T13:48:41.236Z,5.60
2018-07-06T13:49:44.933Z,6.30
2018-07-06T13:50:52.000Z,6.20
2018-07-06T13:56:39.854Z,0.00
2018-07-06T13:57:40.648Z,6.10
2018-07-06T13:58:43.499Z,5.70
2018-07-06T13:59:45.041Z,6.70
2018-07-06T14:00:45.805Z,5.90
2018-07-06T14:01:46.736Z,4.90
2018-07-06T14:04:49.662Z,5.30
2018-07-06T14:06:09.911Z,9.20
2018-07-06T14:07:10.578Z,5.20
2018-07-06T14:08:24.993Z,4.90
2018-07-06T14:09:28.090Z,5.00
2018-07-06T14:10:29.432Z,4.80
2018-07-06T14:11:31.282Z,4.40
2018-07-06T14:12:34.185Z,4.10
2018-07-06T14:13:38.656Z,4.10
2018-07-06T14:14:39.659Z,4.10
2018-07-06T14:16:19.376Z,4.30
2018-07-06T14:17:51.059Z,3.60
2018-07-06T14:28:47.819Z,0.00
2018-07-06T14:29:48.465Z,6.10
2018-07-06T14:30:59.793Z,4.30
2018-07-06T14:32:03.703Z,4.30
2018-07-06T14:33:04.505Z,4.30
2018-07-06T14:34:29.030Z,5.10
2018-07-06T14:35:32.761Z,4.10
2018-07-06T14:36:50.117Z,4.20
2018-07-06T14:37:53.148Z,4.20
2018-07-06T14:51:39.171Z,2.50
2018-07-06T14:53:16.615Z,2.60
2018-07-06T15:05:16.285Z,2.50
2018-07-06T15:06:19.332Z,2.20
2018-07-06T15:30:48.984Z,2.50
2018-07-06T15:53:23.418Z,2.00
2018-07-06T16:16:07.445Z,2.20
2018-07-06T16:17:08.109Z,2.10
2018-07-06T16:19:21.891Z,3.00
2018-07-06T16:20:22.552Z,2.40
2018-07-06T16:32:17.506Z,3.40
2018-07-06T16:33:18.535Z,2.90
2018-07-06T16:42:32.020Z,2.50
2018-07-06T16:43:34.075Z,4.50
2018-07-06T16:50:54.963Z,7.70
2018-07-06T16:51:55.602Z,3.00
2018-07-06T16:52:56.238Z,1.70
2018-07-06T17:23:08.672Z,2.80
2018-07-06T17:24:12.409Z,1.70
